createdAt,value
2022-08-02T00:00:39.239Z,19.23
2022-08-02T00:03:06.871Z,19.28
2022-08-02T00:05:33.930Z,19.22
2022-08-02T00:08:01.309Z,19.20
2022-08-02T00:10:28.874Z,19.23
2022-08-02T00:12:58.266Z,19.22
2022-08-02T00:15:26.252Z,19.20
2022-08-02T00:17:53.780Z,19.17
2022-08-02T00:20:21.210Z,19.17
2022-08-02T00:22:48.195Z,19.14
2022-08-02T00:25:15.335Z,19.12
2022-08-02T00:27:42.516Z,19.12
2022-08-02T00:30:10.371Z,19.11
2022-08-02T00:32:37.450Z,19.04
2022-08-02T00:35:05.064Z,19.09
2022-08-02T00:37:32.040Z,19.08
2022-08-02T00:39:59.422Z,19.06
2022-08-02T00:42:26.788Z,19.05
2022-08-02T00:44:53.955Z,19.04
2022-08-02T00:47:20.988Z,19.03
2022-08-02T00:49:48.124Z,18.98
2022-08-02T00:52:16.706Z,18.97
2022-08-02T00:54:43.857Z,18.96
2022-08-02T00:57:10.849Z,18.92
2022-08-02T00:59:38.029Z,18.93
2022-08-02T01:02:05.134Z,18.93
2022-08-02T01:04:32.528Z,18.91
2022-08-02T01:07:12.304Z,18.95
2022-08-02T01:09:45.629Z,18.94
2022-08-02T01:12:14.019Z,18.88
2022-08-02T01:14:47.701Z,18.94
2022-08-02T01:17:22.996Z,18.89
2022-08-02T01:20:14.941Z,18.88
2022-08-02T01:23:24.946Z,18.81
2022-08-02T01:26:24.947Z,18.70
2022-08-02T01:29:09.021Z,18.74
2022-08-02T01:32:04.618Z,18.75
2022-08-02T01:34:43.564Z,18.75
2022-08-02T01:37:31.599Z,18.75
2022-08-02T01:40:08.183Z,18.70
2022-08-02T01:42:40.081Z,18.75
2022-08-02T01:45:10.285Z,18.68
2022-08-02T01:47:41.644Z,18.72
2022-08-02T01:50:14.063Z,18.71
2022-08-02T01:52:53.497Z,18.70
2022-08-02T01:55:33.628Z,18.64
2022-08-02T01:58:05.781Z,18.61
2022-08-02T02:00:39.693Z,18.60
2022-08-02T02:03:14.957Z,18.65
2022-08-02T02:05:44.151Z,18.59
2022-08-02T02:08:12.405Z,18.63
2022-08-02T02:10:41.615Z,18.61
2022-08-02T02:13:14.467Z,18.62
2022-08-02T02:15:51.754Z,18.49
2022-08-02T02:18:25.438Z,18.51
2022-08-02T02:20:53.682Z,18.47
2022-08-02T02:23:21.426Z,18.43
2022-08-02T02:25:55.741Z,18.48
2022-08-02T02:28:30.207Z,18.47
2022-08-02T02:31:14.021Z,18.43
2022-08-02T02:33:52.678Z,18.34
2022-08-02T02:36:22.375Z,18.34
2022-08-02T02:38:53.932Z,18.31
2022-08-02T02:41:42.436Z,18.29
2022-08-02T02:44:17.305Z,18.21
2022-08-02T02:46:45.291Z,18.21
2022-08-02T02:49:13.786Z,18.22
2022-08-02T02:51:42.197Z,18.15
2022-08-02T02:54:33.174Z,18.19
2022-08-02T02:57:00.621Z,18.17
2022-08-02T02:59:29.371Z,18.15
2022-08-02T03:01:58.267Z,18.06
2022-08-02T03:04:36.050Z,18.06
2022-08-02T03:07:16.257Z,18.09
2022-08-02T03:09:43.863Z,18.07
2022-08-02T03:12:11.811Z,18.02
2022-08-02T03:14:43.918Z,18.05
2022-08-02T03:17:11.005Z,18.02
2022-08-02T03:19:38.023Z,18.05
2022-08-02T03:22:05.144Z,18.04
2022-08-02T03:24:32.737Z,18.06
2022-08-02T03:26:59.788Z,18.06
2022-08-02T03:29:27.562Z,18.02
2022-08-02T03:31:56.995Z,18.01
2022-08-02T03:34:24.555Z,18.01
2022-08-02T03:36:56.745Z,18.03
2022-08-02T03:39:25.779Z,18.01
2022-08-02T03:41:55.316Z,18.00
2022-08-02T03:44:23.497Z,17.99
2022-08-02T03:46:52.964Z,18.02
2022-08-02T03:49:21.057Z,18.04
2022-08-02T03:51:48.662Z,18.01
2022-08-02T03:54:18.377Z,18.08
2022-08-02T03:56:45.977Z,18.01
2022-08-02T03:59:15.068Z,18.16
2022-08-02T04:01:42.426Z,18.25
2022-08-02T04:04:10.013Z,18.38
2022-08-02T04:06:40.171Z,18.49
2022-08-02T04:09:09.757Z,18.56
2022-08-02T04:11:37.844Z,18.71
2022-08-02T04:14:11.171Z,18.87
2022-08-02T04:16:45.629Z,19.07
2022-08-02T04:19:25.704Z,19.33
2022-08-02T04:21:54.773Z,19.48
2022-08-02T04:24:32.030Z,19.55
2022-08-02T04:27:06.336Z,19.65
2022-08-02T04:29:40.233Z,19.77
2022-08-02T04:32:10.362Z,19.81
2022-08-02T04:34:37.685Z,20.00
2022-08-02T04:37:05.698Z,20.11
2022-08-02T04:39:32.730Z,20.28
2022-08-02T04:41:59.813Z,20.34
2022-08-02T04:44:26.967Z,20.33
2022-08-02T04:46:55.431Z,20.29
2022-08-02T04:49:22.542Z,20.35
2022-08-02T04:51:49.601Z,20.27
2022-08-02T04:54:16.624Z,20.25
2022-08-02T04:56:43.602Z,20.21
2022-08-02T04:59:12.345Z,20.14
2022-08-02T05:01:42.280Z,20.06
2022-08-02T05:04:09.336Z,19.98
2022-08-02T05:06:36.356Z,20.03
2022-08-02T05:09:03.623Z,20.17
2022-08-02T05:11:35.896Z,20.15
2022-08-02T05:14:05.741Z,20.19
2022-08-02T05:16:33.357Z,20.07
2022-08-02T05:19:02.270Z,19.99
2022-08-02T05:21:31.397Z,19.95
2022-08-02T05:23:58.458Z,19.88
2022-08-02T05:26:25.463Z,19.87
2022-08-02T05:28:52.441Z,19.87
2022-08-02T05:31:20.107Z,19.89
2022-08-02T05:33:47.100Z,19.95
2022-08-02T05:36:14.148Z,19.96
2022-08-02T05:38:42.982Z,20.13
2022-08-02T05:41:19.536Z,20.23
2022-08-02T05:43:47.944Z,20.23
2022-08-02T05:46:15.010Z,20.13
2022-08-02T05:48:42.146Z,20.06
2022-08-02T05:51:57.363Z,20.12
2022-08-02T05:54:47.116Z,20.16
2022-08-02T05:57:40.644Z,20.16
2022-08-02T06:00:14.355Z,20.11
2022-08-02T06:02:56.283Z,20.13
2022-08-02T06:05:26.755Z,20.16
2022-08-02T06:07:58.489Z,20.18
2022-08-02T06:10:28.752Z,20.13
2022-08-02T06:13:09.806Z,20.16
2022-08-02T06:15:52.834Z,20.22
2022-08-02T06:18:27.773Z,20.32
2022-08-02T06:22:30.466Z,20.45
2022-08-02T06:23:57.820Z,20.61
2022-08-02T06:26:28.368Z,20.75
2022-08-02T06:28:57.904Z,20.88
2022-08-02T06:31:25.424Z,20.99
2022-08-02T06:33:53.092Z,21.10
2022-08-02T06:36:42.798Z,21.18
2022-08-02T06:39:32.609Z,21.24
2022-08-02T06:42:11.966Z,21.25
2022-08-02T06:44:47.902Z,21.29
2022-08-02T06:47:18.174Z,21.46
2022-08-02T06:49:52.382Z,21.56
2022-08-02T06:52:34.113Z,21.67
2022-08-02T06:55:04.074Z,21.80
2022-08-02T06:57:32.334Z,21.87
2022-08-02T07:00:02.407Z,21.88
2022-08-02T07:02:31.455Z,21.89
2022-08-02T07:04:59.185Z,21.92
2022-08-02T07:07:27.789Z,21.98
2022-08-02T07:09:57.234Z,22.06
2022-08-02T07:12:31.910Z,22.15
2022-08-02T07:15:01.347Z,22.28
2022-08-02T07:17:29.625Z,22.37
2022-08-02T07:19:57.564Z,22.44
2022-08-02T07:22:26.894Z,22.45
2022-08-02T07:24:57.005Z,22.53
2022-08-02T07:27:25.496Z,22.63
2022-08-02T07:29:53.369Z,22.74
2022-08-02T07:32:24.493Z,22.82
2022-08-02T07:34:54.078Z,22.89
2022-08-02T07:37:53.607Z,22.95
2022-08-02T07:40:13.709Z,23.01
2022-08-02T07:42:43.924Z,23.11
2022-08-02T07:45:13.339Z,23.12
2022-08-02T07:47:42.595Z,23.24
2022-08-02T07:50:12.241Z,23.31
2022-08-02T07:52:41.665Z,23.32
2022-08-02T07:55:10.891Z,23.21
2022-08-02T07:57:45.411Z,23.18
2022-08-02T08:00:16.078Z,23.08
2022-08-02T08:02:43.643Z,22.96
2022-08-02T08:05:11.217Z,22.82
2022-08-02T08:07:39.160Z,22.77
2022-08-02T08:10:07.453Z,22.73
2022-08-02T08:12:34.877Z,22.25
2022-08-02T08:15:02.309Z,22.70
2022-08-02T08:17:29.539Z,22.69
2022-08-02T08:19:57.980Z,22.70
2022-08-02T08:22:25.386Z,22.68
2022-08-02T08:24:52.717Z,22.73
2022-08-02T08:27:22.498Z,22.77
2022-08-02T08:29:50.289Z,22.73
2022-08-02T08:32:18.427Z,22.72
2022-08-02T08:34:49.508Z,22.70
2022-08-02T08:37:18.035Z,22.75
2022-08-02T08:39:53.600Z,22.86
2022-08-02T08:42:31.218Z,23.08
2022-08-02T08:44:59.616Z,23.32
2022-08-02T08:47:39.343Z,23.53
2022-08-02T08:50:24.109Z,23.70
2022-08-02T08:53:07.607Z,23.82
2022-08-02T08:55:37.742Z,23.90
2022-08-02T08:58:05.696Z,23.99
2022-08-02T09:00:35.940Z,24.02
2022-08-02T09:03:11.768Z,23.86
2022-08-02T09:05:41.894Z,24.08
2022-08-02T09:08:16.802Z,23.87
2022-08-02T09:10:47.772Z,24.18
2022-08-02T09:13:44.922Z,24.20
2022-08-02T09:16:43.390Z,24.25
2022-08-02T09:19:22.303Z,24.18
2022-08-02T09:22:09.810Z,24.10
2022-08-02T09:24:48.803Z,24.02
2022-08-02T09:27:22.754Z,23.80
2022-08-02T09:30:12.390Z,23.77
2022-08-02T09:32:49.947Z,23.74
2022-08-02T09:36:07.051Z,23.75
2022-08-02T09:38:57.662Z,23.76
2022-08-02T09:41:31.997Z,23.83
2022-08-02T09:44:06.168Z,23.92
2022-08-02T09:46:42.790Z,24.02
2022-08-02T09:49:11.488Z,24.11
2022-08-02T09:51:49.214Z,24.19
2022-08-02T09:54:21.288Z,24.24
2022-08-02T09:56:51.975Z,24.23
2022-08-02T09:59:25.827Z,23.95
2022-08-02T10:01:58.961Z,24.23
2022-08-02T10:04:53.542Z,24.26
2022-08-02T10:07:23.138Z,24.32
2022-08-02T10:09:52.038Z,24.40
2022-08-02T10:12:23.057Z,24.47
2022-08-02T10:14:52.218Z,24.51
2022-08-02T10:17:21.050Z,24.50
2022-08-02T10:20:01.899Z,24.51
2022-08-02T10:22:34.905Z,24.48
2022-08-02T10:25:04.635Z,24.54
2022-08-02T10:27:55.150Z,24.56
2022-08-02T10:30:24.432Z,24.57
2022-08-02T10:32:54.168Z,24.55
2022-08-02T10:35:25.712Z,24.61
2022-08-02T10:38:01.217Z,24.66
2022-08-02T10:40:52.675Z,24.62
2022-08-02T10:43:31.933Z,24.62
2022-08-02T10:46:27.818Z,24.62
2022-08-02T10:49:37.940Z,24.68
2022-08-02T10:51:59.100Z,24.77
2022-08-02T10:54:38.832Z,24.84
2022-08-02T10:57:16.215Z,24.92
2022-08-02T10:59:44.312Z,24.94
2022-08-02T11:02:13.408Z,25.00
2022-08-02T11:04:43.456Z,25.00
2022-08-02T11:07:17.650Z,24.99
2022-08-02T11:09:47.025Z,24.99
2022-08-02T11:12:23.242Z,24.92
2022-08-02T11:15:07.365Z,24.96
2022-08-02T11:18:01.462Z,24.98
2022-08-02T11:20:28.794Z,25.04
2022-08-02T11:23:45.191Z,25.12
2022-08-02T11:26:31.349Z,25.22
2022-08-02T11:29:05.333Z,25.26
2022-08-02T11:31:43.079Z,25.31
2022-08-02T11:34:11.470Z,25.40
2022-08-02T11:36:58.585Z,25.42
2022-08-02T11:39:25.637Z,25.41
2022-08-02T11:41:59.450Z,25.21
2022-08-02T11:44:30.331Z,25.48
2022-08-02T11:47:02.713Z,25.59
2022-08-02T11:49:30.089Z,25.58
2022-08-02T11:52:01.785Z,25.58
2022-08-02T11:54:41.450Z,25.59
2022-08-02T11:57:20.772Z,25.61
2022-08-02T11:59:52.382Z,25.65
2022-08-02T12:02:26.278Z,25.72
2022-08-02T12:05:03.022Z,25.72
2022-08-02T12:07:45.544Z,25.78
2022-08-02T12:10:21.691Z,25.75
2022-08-02T12:13:00.912Z,25.69
2022-08-02T12:15:41.764Z,25.75
2022-08-02T12:18:37.346Z,25.77
2022-08-02T12:21:22.726Z,25.82
2022-08-02T12:24:00.463Z,25.86
2022-08-02T12:26:29.769Z,25.89
2022-08-02T12:28:58.702Z,25.96
2022-08-02T12:31:56.950Z,26.06
2022-08-02T12:34:32.280Z,26.07
2022-08-02T12:37:10.216Z,26.05
2022-08-02T12:39:46.390Z,26.01
2022-08-02T12:42:16.262Z,25.99
2022-08-02T12:44:54.001Z,25.97
2022-08-02T12:47:22.042Z,25.99
2022-08-02T12:50:29.926Z,26.04
2022-08-02T12:53:13.478Z,26.02
2022-08-02T12:55:59.211Z,26.04
2022-08-02T12:58:31.894Z,26.00
2022-08-02T13:01:01.437Z,26.07
2022-08-02T13:04:11.132Z,26.12
2022-08-02T13:06:42.204Z,26.15
2022-08-02T13:09:17.136Z,26.18
2022-08-02T13:11:44.924Z,26.22
2022-08-02T13:14:14.198Z,26.21
2022-08-02T13:16:43.740Z,26.20
2022-08-02T13:19:11.469Z,26.28
2022-08-02T13:21:41.656Z,26.31
2022-08-02T13:24:37.939Z,26.29
2022-08-02T13:27:09.558Z,26.35
2022-08-02T13:29:38.294Z,26.38
2022-08-02T13:32:05.648Z,26.41
2022-08-02T13:34:32.831Z,26.45
2022-08-02T13:37:00.075Z,26.53
2022-08-02T13:39:27.110Z,26.55
2022-08-02T13:41:55.150Z,26.52
2022-08-02T13:44:22.692Z,26.53
2022-08-02T13:46:49.668Z,26.41
2022-08-02T13:49:19.949Z,26.46
2022-08-02T13:51:48.716Z,26.49
2022-08-02T13:54:16.435Z,26.48
2022-08-02T13:56:43.921Z,26.56
2022-08-02T13:59:57.559Z,26.54
2022-08-02T14:01:59.246Z,26.52
2022-08-02T14:04:27.424Z,26.53
2022-08-02T14:06:54.708Z,26.47
2022-08-02T14:09:26.369Z,26.50
2022-08-02T14:11:53.556Z,26.53
2022-08-02T14:14:20.720Z,26.51
2022-08-02T14:16:47.883Z,26.56
2022-08-02T14:19:15.957Z,26.59
2022-08-02T14:21:46.954Z,26.56
2022-08-02T14:24:21.071Z,26.59
2022-08-02T14:26:49.205Z,26.58
2022-08-02T14:29:17.567Z,26.36
2022-08-02T14:31:45.349Z,26.38
2022-08-02T14:34:13.670Z,26.66
2022-08-02T14:36:41.399Z,26.60
2022-08-02T14:39:09.307Z,26.48
2022-08-02T14:42:00.212Z,26.48
2022-08-02T14:44:24.404Z,26.50
2022-08-02T14:46:52.884Z,26.57
2022-08-02T14:49:25.545Z,26.63
2022-08-02T14:51:55.239Z,26.69
2022-08-02T14:54:27.805Z,26.73
2022-08-02T14:57:00.744Z,26.68
2022-08-02T14:59:28.934Z,26.81
2022-08-02T15:01:56.503Z,26.84
2022-08-02T15:04:23.706Z,26.89
2022-08-02T15:06:51.295Z,26.90
2022-08-02T15:09:18.978Z,26.89
2022-08-02T15:11:48.853Z,26.86
2022-08-02T15:14:25.653Z,26.77
2022-08-02T15:16:58.436Z,26.79
2022-08-02T15:19:38.540Z,26.73
2022-08-02T15:22:16.643Z,26.71
2022-08-02T15:24:46.817Z,26.72
2022-08-02T15:27:14.805Z,26.76
2022-08-02T15:29:44.087Z,26.78
2022-08-02T15:32:12.001Z,26.80
2022-08-02T15:34:40.341Z,26.74
2022-08-02T15:37:07.628Z,26.78
2022-08-02T15:39:34.821Z,26.57
2022-08-02T15:42:01.917Z,26.82
2022-08-02T15:44:29.205Z,26.87
2022-08-02T15:46:57.676Z,26.85
2022-08-02T15:49:25.792Z,26.83
2022-08-02T15:51:54.639Z,26.78
2022-08-02T15:54:21.660Z,26.74
2022-08-02T15:56:49.813Z,26.73
2022-08-02T15:59:18.036Z,26.69
2022-08-02T16:01:47.988Z,26.68
2022-08-02T16:04:16.513Z,26.64
2022-08-02T16:06:44.423Z,26.52
2022-08-02T16:09:12.001Z,26.58
2022-08-02T16:11:39.459Z,26.54
2022-08-02T16:14:06.633Z,26.48
2022-08-02T16:16:36.623Z,26.53
2022-08-02T16:19:45.697Z,26.48
2022-08-02T16:21:56.217Z,26.48
2022-08-02T16:24:23.634Z,26.48
2022-08-02T16:26:50.897Z,26.50
2022-08-02T16:29:19.783Z,26.50
2022-08-02T16:31:47.898Z,26.41
2022-08-02T16:34:16.097Z,26.48
2022-08-02T16:36:44.051Z,26.40
2022-08-02T16:39:11.841Z,26.38
2022-08-02T16:41:51.980Z,26.22
2022-08-02T16:44:28.956Z,26.17
2022-08-02T16:47:01.137Z,26.08
2022-08-02T16:50:05.935Z,25.97
2022-08-02T16:52:27.993Z,25.80
2022-08-02T16:54:59.930Z,25.66
2022-08-02T16:57:42.817Z,25.54
2022-08-02T17:00:14.348Z,25.43
2022-08-02T17:02:42.703Z,25.35
2022-08-02T17:05:13.679Z,25.22
2022-08-02T17:08:15.184Z,25.23
2022-08-02T17:10:30.038Z,25.27
2022-08-02T17:13:10.720Z,25.28
2022-08-02T17:16:08.036Z,25.25
2022-08-02T17:18:26.385Z,25.17
2022-08-02T17:20:55.020Z,25.17
2022-08-02T17:23:22.011Z,25.14
2022-08-02T17:25:52.887Z,25.11
2022-08-02T17:28:20.253Z,25.10
2022-08-02T17:30:47.522Z,25.17
2022-08-02T17:33:16.823Z,25.16
2022-08-02T17:35:52.542Z,25.13
2022-08-02T17:38:26.286Z,25.12
2022-08-02T17:40:56.154Z,25.21
2022-08-02T17:43:29.165Z,25.23
2022-08-02T17:45:59.849Z,25.19
2022-08-02T17:48:49.035Z,25.23
2022-08-02T17:52:15.944Z,25.19
2022-08-02T17:54:04.056Z,25.08
2022-08-02T17:56:42.540Z,25.11
2022-08-02T17:59:31.258Z,25.01
2022-08-02T18:02:11.371Z,24.94
2022-08-02T18:04:39.055Z,24.92
2022-08-02T18:07:09.510Z,24.88
2022-08-02T18:09:37.358Z,24.79
2022-08-02T18:12:14.227Z,24.78
2022-08-02T18:14:49.139Z,24.78
2022-08-02T18:17:17.139Z,24.76
2022-08-02T18:19:56.717Z,24.74
2022-08-02T18:22:26.973Z,24.74
2022-08-02T18:24:54.547Z,24.73
2022-08-02T18:27:22.945Z,24.68
2022-08-02T18:30:00.091Z,24.67
2022-08-02T18:33:54.330Z,24.66
2022-08-02T18:35:19.910Z,24.65
2022-08-02T18:37:57.084Z,24.65
2022-08-02T18:40:28.056Z,24.66
2022-08-02T18:42:55.151Z,24.64
2022-08-02T18:45:22.239Z,24.62
2022-08-02T18:47:51.341Z,24.55
2022-08-02T18:50:20.157Z,24.37
2022-08-02T18:52:50.109Z,24.56
2022-08-02T18:55:59.524Z,24.57
2022-08-02T18:58:17.972Z,24.55
2022-08-02T19:00:51.803Z,24.48
2022-08-02T19:03:19.866Z,24.51
2022-08-02T19:05:52.373Z,24.48
2022-08-02T19:08:37.609Z,24.45
2022-08-02T19:11:04.699Z,24.38
2022-08-02T19:13:31.714Z,24.36
2022-08-02T19:15:58.955Z,24.40
2022-08-02T19:18:27.098Z,24.29
2022-08-02T19:21:03.242Z,24.32
2022-08-02T19:23:32.922Z,24.33
2022-08-02T19:26:00.357Z,24.33
2022-08-02T19:28:27.833Z,24.26
2022-08-02T19:30:56.229Z,24.30
2022-08-02T19:33:55.028Z,24.29
2022-08-02T19:36:11.866Z,24.29
2022-08-02T19:38:43.795Z,24.32
2022-08-02T19:41:13.553Z,24.34
2022-08-02T19:44:22.906Z,24.33
2022-08-02T19:46:29.851Z,24.30
2022-08-02T19:48:57.270Z,24.29
2022-08-02T19:51:49.839Z,24.28
2022-08-02T19:54:12.165Z,24.24
2022-08-02T19:56:40.383Z,24.23
2022-08-02T19:59:12.910Z,24.23
2022-08-02T20:04:28.677Z,24.16
2022-08-02T20:06:55.818Z,24.12
2022-08-02T20:09:33.218Z,24.17
2022-08-02T20:12:00.609Z,24.14
2022-08-02T20:14:28.038Z,24.14
2022-08-02T20:16:57.451Z,24.10
2022-08-02T20:19:25.183Z,24.15
2022-08-02T20:21:59.934Z,24.13
2022-08-02T20:24:28.304Z,24.12
2022-08-02T20:26:58.936Z,24.12
2022-08-02T20:29:43.933Z,24.12
2022-08-02T20:32:22.513Z,24.11
2022-08-02T20:34:50.620Z,24.09
2022-08-02T20:37:56.349Z,24.09
2022-08-02T20:40:06.725Z,24.07
2022-08-02T20:42:34.558Z,24.05
2022-08-02T20:45:08.182Z,24.04
2022-08-02T20:47:40.350Z,24.02
2022-08-02T20:50:30.603Z,23.99
2022-08-02T20:53:00.782Z,24.06
2022-08-02T20:55:31.199Z,24.06
2022-08-02T20:58:01.865Z,23.97
2022-08-02T21:00:31.472Z,24.01
2022-08-02T21:03:00.328Z,23.99
2022-08-02T21:05:54.437Z,23.99
2022-08-02T21:08:15.616Z,23.94
2022-08-02T21:10:52.269Z,23.99
2022-08-02T21:13:22.385Z,24.06
2022-08-02T21:15:51.298Z,24.05
2022-08-02T21:18:23.574Z,24.09
2022-08-02T21:20:57.654Z,24.09
2022-08-02T21:23:24.781Z,24.06
2022-08-02T21:25:57.340Z,24.10
2022-08-02T21:28:43.310Z,24.10
2022-08-02T21:31:15.526Z,24.13
2022-08-02T21:33:56.963Z,24.15
2022-08-02T21:36:33.986Z,24.13
2022-08-02T21:39:04.849Z,24.18
2022-08-02T21:41:38.514Z,24.18
2022-08-02T21:44:17.730Z,24.17
2022-08-02T21:46:50.335Z,24.14
2022-08-02T21:49:27.246Z,24.16
2022-08-02T21:52:08.477Z,24.13
2022-08-02T21:54:35.606Z,24.13
2022-08-02T21:57:07.786Z,24.09
2022-08-02T21:59:45.283Z,24.08
2022-08-02T22:02:13.760Z,24.06
2022-08-02T22:04:41.584Z,24.05
2022-08-02T22:07:23.987Z,24.00
2022-08-02T22:09:53.371Z,23.79
2022-08-02T22:12:21.006Z,23.88
2022-08-02T22:14:54.005Z,23.88
2022-08-02T22:17:51.122Z,23.84
2022-08-02T22:20:19.796Z,23.82
2022-08-02T22:22:52.707Z,23.74
2022-08-02T22:25:26.783Z,23.74
2022-08-02T22:28:38.342Z,23.70
2022-08-02T22:30:54.447Z,23.74
2022-08-02T22:33:46.514Z,23.74
2022-08-02T22:36:18.297Z,23.70
2022-08-02T22:38:47.017Z,23.74
2022-08-02T22:41:15.493Z,23.73
2022-08-02T22:43:43.306Z,23.74
2022-08-02T22:46:15.465Z,23.72
2022-08-02T22:48:44.545Z,23.68
2022-08-02T22:51:14.318Z,23.62
2022-08-02T22:53:43.681Z,23.65
2022-08-02T22:56:12.306Z,23.66
2022-08-02T22:58:54.159Z,24.15
2022-08-02T22:59:12.564Z,23.65
2022-08-02T23:01:26.940Z,23.64
2022-08-02T23:03:54.113Z,23.64
2022-08-02T23:06:22.843Z,23.63
2022-08-02T23:08:50.408Z,23.64
2022-08-02T23:11:17.493Z,23.59
2022-08-02T23:13:44.499Z,23.62
2022-08-02T23:16:30.130Z,23.63
2022-08-02T23:19:15.670Z,23.59
2022-08-02T23:22:00.819Z,23.59
2022-08-02T23:24:30.466Z,23.59
2022-08-02T23:26:57.458Z,23.57
2022-08-02T23:29:24.550Z,23.56
2022-08-02T23:31:51.530Z,23.57
2022-08-02T23:34:20.135Z,23.52
2022-08-02T23:36:47.472Z,23.55
2022-08-02T23:39:14.615Z,23.56
2022-08-02T23:41:41.957Z,23.56
2022-08-02T23:44:14.175Z,23.52
2022-08-02T23:46:46.739Z,23.56
2022-08-02T23:49:16.516Z,23.57
2022-08-02T23:51:44.276Z,23.56
2022-08-02T23:54:12.608Z,23.56
2022-08-02T23:56:40.884Z,23.57
2022-08-02T23:59:08.695Z,23.57
